Time;durP1;ratioP1;P1;durP2;ratioP2;P2;SDS_P1;SDS_P2;PMS_P1;PMS_P2;Temp;Humidity;BMP_temperature;BMP_pressure;BME280_temperature;BME280_humidity;BME280_pressure;Samples;Min_cycle;Max_cycle;Signal;HPM_P1;HPM_P2
2021/09/14 00:02:06;;;;;;;8.10;7.50;;;18.20;99.90;;;;;;4915732;29;20269;-63
2021/09/14 00:04:31;;;;;;;7.67;7.00;;;18.20;99.90;;;;;;4915778;29;20196;-63
2021/09/14 00:06:58;;;;;;;8.00;7.30;;;18.10;99.90;;;;;;4915913;29;20431;-63
2021/09/14 00:09:23;;;;;;;8.23;7.47;;;18.10;99.90;;;;;;4915513;29;20199;-63
2021/09/14 00:11:49;;;;;;;7.97;7.37;;;18.10;99.90;;;;;;4916256;29;20458;-63
2021/09/14 00:14:14;;;;;;;8.43;7.70;;;18.00;99.90;;;;;;4915919;29;20179;-63
2021/09/14 00:16:40;;;;;;;7.50;6.80;;;18.00;99.90;;;;;;4915943;29;20174;-63
2021/09/14 00:19:05;;;;;;;7.67;7.10;;;18.00;99.90;;;;;;4915761;29;20194;-63
2021/09/14 00:21:31;;;;;;;7.83;7.23;;;18.00;99.90;;;;;;4915828;29;20218;-63
2021/09/14 00:23:56;;;;;;;8.60;7.43;;;18.00;99.90;;;;;;4915948;29;20249;-63
2021/09/14 00:26:22;;;;;;;8.27;7.47;;;18.00;99.90;;;;;;4915435;29;20269;-63
2021/09/14 00:28:47;;;;;;;7.03;6.53;;;18.00;99.90;;;;;;4915655;29;20202;-63
2021/09/14 00:31:13;;;;;;;7.03;6.43;;;18.00;99.90;;;;;;4915313;29;20205;-63
2021/09/14 00:33:38;;;;;;;8.40;7.73;;;18.00;99.90;;;;;;4915416;29;20186;-63
2021/09/14 00:36:04;;;;;;;9.10;7.90;;;18.00;99.90;;;;;;4915763;29;20178;-63
2021/09/14 00:38:29;;;;;;;7.40;6.80;;;18.00;99.90;;;;;;4915006;29;20257;-63
2021/09/14 00:40:55;;;;;;;7.40;6.80;;;18.00;99.90;;;;;;4915704;29;20202;-63
2021/09/14 00:43:22;;;;;;;6.90;6.40;;;18.00;99.90;;;;;;4915555;29;20170;-63
2021/09/14 00:45:48;;;;;;;7.70;7.10;;;17.90;99.90;;;;;;4915667;29;20179;-63
2021/09/14 00:48:14;;;;;;;8.70;7.87;;;17.90;99.90;;;;;;4915101;29;20500;-63
2021/09/14 00:50:40;;;;;;;7.73;7.17;;;17.80;99.90;;;;;;4915471;29;20454;-63
2021/09/14 00:53:06;;;;;;;7.37;6.67;;;17.80;99.90;;;;;;4915208;29;20952;-63
2021/09/14 00:55:32;;;;;;;8.07;7.50;;;17.70;99.90;;;;;;4915571;29;20478;-63
2021/09/14 00:57:57;;;;;;;8.30;7.70;;;17.80;99.90;;;;;;4910726;29;20210;-63
2021/09/14 01:00:23;;;;;;;7.70;6.97;;;17.80;99.90;;;;;;4915387;29;20174;-63
2021/09/14 01:02:49;;;;;;;7.73;7.13;;;17.70;99.90;;;;;;4911855;29;20178;-63
2021/09/14 01:05:15;;;;;;;7.93;7.23;;;17.70;99.90;;;;;;4909661;29;20594;-63
2021/09/14 01:07:42;;;;;;;12.67;7.20;;;17.70;99.90;;;;;;4915214;29;20430;-63
2021/09/14 01:10:10;;;;;;;7.77;7.17;;;17.70;99.90;;;;;;4930052;29;20181;-64
2021/09/14 01:12:36;;;;;;;7.30;6.60;;;17.60;99.90;;;;;;4915543;29;20466;-63
2021/09/14 01:15:02;;;;;;;8.43;7.60;;;17.70;99.90;;;;;;4915453;29;20509;-63
2021/09/14 01:17:27;;;;;;;7.57;7.00;;;17.70;99.90;;;;;;4916549;29;20582;-63
2021/09/14 01:19:53;;;;;;;7.37;6.87;;;17.70;99.90;;;;;;4918943;29;20793;-63
2021/09/14 01:22:18;;;;;;;8.07;7.30;;;17.70;99.90;;;;;;4919218;29;20186;-63
2021/09/14 01:24:44;;;;;;;7.43;6.83;;;17.70;99.90;;;;;;4919644;29;20454;-63
2021/09/14 01:27:10;;;;;;;8.40;7.77;;;17.70;99.90;;;;;;4918682;29;20662;-63
2021/09/14 01:32:20;;;;;;;8.70;7.63;;;17.70;99.90;;;;;;4918896;29;20545;-63
2021/09/14 01:34:46;;;;;;;7.33;6.73;;;17.70;99.90;;;;;;4918771;29;20886;-63
2021/09/14 01:37:11;;;;;;;8.57;7.27;;;17.60;99.90;;;;;;4918573;29;20181;-63
2021/09/14 01:39:37;;;;;;;7.87;7.27;;;17.60;99.90;;;;;;4918419;29;20250;-63
2021/09/14 01:42:03;;;;;;;7.20;6.70;;;17.50;99.90;;;;;;4918574;29;20667;-63
2021/09/14 01:44:28;;;;;;;7.50;6.87;;;17.50;99.90;;;;;;4918458;29;20182;-63
2021/09/14 01:46:54;;;;;;;7.83;7.30;;;17.40;99.90;;;;;;4918360;29;20193;-63
2021/09/14 01:49:19;;;;;;;8.40;7.70;;;17.40;99.90;;;;;;4918159;29;20202;-63
2021/09/14 01:51:45;;;;;;;8.00;7.40;;;17.30;99.90;;;;;;4918393;29;20289;-63
2021/09/14 01:54:10;;;;;;;8.20;7.50;;;17.30;99.90;;;;;;4918334;29;20262;-63
2021/09/14 01:56:37;;;;;;;9.50;8.43;;;17.30;99.90;;;;;;4918387;29;20218;-63
2021/09/14 01:59:03;;;;;;;8.83;8.03;;;17.20;99.90;;;;;;4917958;29;20201;-63
2021/09/14 02:01:37;;;;;;;7.30;6.80;;;17.30;99.90;;;;;;4918329;29;20422;-63
2021/09/14 02:06:55;;;;;;;9.57;8.30;;;17.20;99.90;;;;;;4918270;29;20465;-63
2021/09/14 02:40:08;;;;;;;9.00;8.23;;;17.00;99.90;;;;;;4915979;29;20500;-63
2021/09/14 02:56:17;;;;;;;9.07;8.37;;;17.00;99.90;;;;;;4917259;29;20534;-63
2021/09/14 02:58:46;;;;;;;9.20;8.43;;;16.90;99.90;;;;;;4906861;29;20449;-63
2021/09/14 03:01:13;;;;;;;10.57;9.73;;;16.90;99.90;;;;;;4917325;29;20813;-63
2021/09/14 03:03:42;;;;;;;9.60;8.90;;;16.80;99.90;;;;;;4917171;29;20529;-63
2021/09/14 03:06:09;;;;;;;9.40;8.60;;;16.80;99.90;;;;;;4917434;29;20475;-63
2021/09/14 03:08:41;;;;;;;9.90;9.10;;;16.90;99.90;;;;;;4917178;29;20481;-63
2021/09/14 03:11:09;;;;;;;10.20;9.20;;;17.00;99.90;;;;;;4916704;29;20869;-63
2021/09/14 03:13:36;;;;;;;9.90;9.00;;;17.00;99.90;;;;;;4916879;29;20418;-63
2021/09/14 03:16:02;;;;;;;9.57;8.80;;;17.00;99.90;;;;;;4916865;29;20423;-63
2021/09/14 03:18:28;;;;;;;9.60;8.80;;;17.10;99.90;;;;;;4916508;29;20441;-63
2021/09/14 03:20:53;;;;;;;10.43;9.43;;;17.10;99.90;;;;;;4916416;29;20445;-63
2021/09/14 03:23:19;;;;;;;10.67;9.63;;;17.00;99.90;;;;;;4916827;29;20178;-63
2021/09/14 03:25:44;;;;;;;8.80;8.10;;;17.00;99.90;;;;;;4916395;29;20194;-63
2021/09/14 03:28:11;;;;;;;11.27;10.37;;;17.00;99.90;;;;;;4903379;29;20292;-63
2021/09/14 03:30:36;;;;;;;10.47;9.63;;;17.00;99.90;;;;;;4897838;29;20179;-63
2021/09/14 03:33:03;;;;;;;10.83;9.93;;;17.00;99.90;;;;;;4897856;29;20433;-63
2021/09/14 03:35:29;;;;;;;10.20;9.20;;;17.00;99.90;;;;;;4897707;29;20171;-63
2021/09/14 03:37:54;;;;;;;8.73;8.03;;;17.10;99.90;;;;;;4907963;29;20461;-63
2021/09/14 03:40:20;;;;;;;9.33;8.53;;;17.10;99.90;;;;;;4916042;29;20433;-63
2021/09/14 03:42:45;;;;;;;9.90;9.00;;;17.00;99.90;;;;;;4906861;29;20187;-63
2021/09/14 03:45:11;;;;;;;10.47;9.60;;;17.10;99.90;;;;;;4897465;29;20194;-63
2021/09/14 03:47:36;;;;;;;9.27;8.57;;;17.00;99.90;;;;;;4915811;29;20652;-63
2021/09/14 03:50:04;;;;;;;8.70;8.00;;;17.00;99.90;;;;;;4916398;29;20257;-63
2021/09/14 03:52:29;;;;;;;10.60;9.63;;;17.00;99.90;;;;;;4916307;29;20633;-63
2021/09/14 03:54:55;;;;;;;10.30;9.30;;;16.90;99.90;;;;;;4916194;29;20526;-63
2021/09/14 03:57:20;;;;;;;9.93;9.13;;;16.90;99.90;;;;;;4907815;29;20466;-63
2021/09/14 03:59:46;;;;;;;9.93;9.03;;;16.90;99.90;;;;;;4904194;29;20206;-63
2021/09/14 04:02:24;;;;;;;10.60;9.80;;;16.90;99.90;;;;;;4914221;29;20186;-63
2021/09/14 04:10:08;;;;;;;9.90;9.10;;;16.80;99.90;;;;;;4910409;29;20769;-63
2021/09/14 04:12:34;;;;;;;10.87;10.00;;;16.80;99.90;;;;;;4897026;29;20463;-63
2021/09/14 04:15:00;;;;;;;10.80;9.80;;;16.80;99.90;;;;;;4897205;29;20506;-63
2021/09/14 04:17:26;;;;;;;11.17;10.17;;;16.80;99.90;;;;;;4914719;29;20182;-63
2021/09/14 04:19:51;;;;;;;10.63;9.83;;;16.80;99.90;;;;;;4915398;29;20502;-63
2021/09/14 04:22:17;;;;;;;10.80;9.90;;;16.80;99.90;;;;;;4905603;29;20250;-63
2021/09/14 04:24:43;;;;;;;11.03;10.10;;;16.80;99.90;;;;;;4897013;29;20193;-63
2021/09/14 04:27:09;;;;;;;12.30;11.30;;;16.80;99.90;;;;;;4901620;29;20652;-62
2021/09/14 04:29:35;;;;;;;11.57;10.67;;;16.70;99.90;;;;;;4915622;29;20218;-63
2021/09/14 04:32:00;;;;;;;11.93;10.93;;;16.70;99.90;;;;;;4916351;29;20548;-62
2021/09/14 04:34:26;;;;;;;12.57;10.83;;;16.70;99.90;;;;;;4915729;29;20532;-63
2021/09/14 04:36:52;;;;;;;11.10;10.17;;;16.70;99.90;;;;;;4902773;29;20536;-63
2021/09/14 04:39:18;;;;;;;11.13;10.20;;;16.70;99.90;;;;;;4901014;29;20670;-61
2021/09/14 04:41:44;;;;;;;12.33;11.33;;;16.70;99.90;;;;;;4898720;29;20795;-61
2021/09/14 04:44:09;;;;;;;11.50;10.60;;;16.70;99.90;;;;;;4899047;29;20443;-62
2021/09/14 04:46:35;;;;;;;12.90;11.70;;;16.70;99.90;;;;;;4903526;29;20592;-62
2021/09/14 04:49:01;;;;;;;11.60;10.70;;;16.70;99.90;;;;;;4915073;29;20216;-62
2021/09/14 04:51:27;;;;;;;10.73;9.63;;;16.60;99.90;;;;;;4915613;29;20972;-62
2021/09/14 04:53:52;;;;;;;9.90;9.20;;;16.70;99.90;;;;;;4919363;29;20225;-63
2021/09/14 04:56:18;;;;;;;11.60;10.40;;;16.70;99.90;;;;;;4912087;29;20187;-62
2021/09/14 04:58:46;;;;;;;12.07;11.07;;;16.70;99.90;;;;;;4901144;29;20209;-63
2021/09/14 05:01:14;;;;;;;10.80;10.00;;;16.60;99.90;;;;;;4903758;29;20269;-62
2021/09/14 05:03:40;;;;;;;10.33;9.50;;;16.60;99.90;;;;;;4918492;29;20442;-63
2021/09/14 05:06:05;;;;;;;11.30;10.23;;;16.60;99.90;;;;;;4918896;29;20426;-62
2021/09/14 05:08:31;;;;;;;12.87;11.83;;;16.60;99.90;;;;;;4918500;29;20689;-62
2021/09/14 05:10:58;;;;;;;12.87;11.80;;;16.50;99.90;;;;;;4918795;29;20249;-62
2021/09/14 05:13:24;;;;;;;13.03;11.93;;;16.50;99.90;;;;;;4910817;29;20171;-62
2021/09/14 05:15:49;;;;;;;13.20;11.07;;;16.50;99.90;;;;;;4913735;29;20438;-62
2021/09/14 05:18:16;;;;;;;12.57;11.33;;;16.50;99.90;;;;;;4913727;29;20214;-63
2021/09/14 05:20:42;;;;;;;13.83;12.63;;;16.50;99.90;;;;;;4900076;29;20641;-63
2021/09/14 05:23:50;;;;;;;12.40;11.30;;;16.60;99.90;;;;;;4905676;29;20529;-63
2021/09/14 05:25:58;;;;;;;12.80;11.57;;;16.60;99.90;;;;;;4892331;29;20190;-63
2021/09/14 05:28:24;;;;;;;12.23;11.23;;;16.60;99.90;;;;;;4914199;29;20528;-62
2021/09/14 05:30:50;;;;;;;12.40;11.17;;;16.60;99.90;;;;;;4907667;29;20438;-62
2021/09/14 05:33:16;;;;;;;12.00;10.80;;;16.70;99.90;;;;;;4899949;29;20423;-62
2021/09/14 05:35:45;;;;;;;12.60;11.40;;;16.80;99.90;;;;;;4899694;29;20183;-62
2021/09/14 05:38:12;;;;;;;12.37;11.17;;;16.90;99.90;;;;;;4899513;29;20485;-62
2021/09/14 05:40:38;;;;;;;13.80;12.50;;;17.10;99.90;;;;;;4905538;29;20534;-63
2021/09/14 05:43:06;;;;;;;13.23;9.97;;;17.20;99.90;;;;;;4918891;29;20984;-63
2021/09/14 05:45:32;;;;;;;12.10;10.97;;;17.40;99.90;;;;;;4918520;29;20257;-63
2021/09/14 05:47:59;;;;;;;11.23;10.07;;;17.60;99.90;;;;;;4918183;29;20438;-63
2021/09/14 05:50:25;;;;;;;11.10;10.13;;;17.70;99.90;;;;;;4918565;29;20462;-63
2021/09/14 05:52:50;;;;;;;11.53;9.80;;;17.90;99.90;;;;;;4918438;29;20508;-63
2021/09/14 05:55:16;;;;;;;12.50;11.40;;;18.00;99.90;;;;;;4918550;29;20258;-63
2021/09/14 05:57:41;;;;;;;11.57;10.40;;;18.20;99.90;;;;;;4917994;29;20274;-63
2021/09/14 06:00:08;;;;;;;14.00;12.67;;;18.30;99.90;;;;;;4918305;29;20181;-63
2021/09/14 06:02:33;;;;;;;11.37;10.33;;;18.40;99.90;;;;;;4918009;29;20178;-63
2021/09/14 06:04:59;;;;;;;10.70;9.70;;;18.50;99.90;;;;;;4918116;29;20433;-63
2021/09/14 06:07:25;;;;;;;10.57;9.73;;;18.70;99.90;;;;;;4917794;29;20318;-63
2021/09/14 06:09:50;;;;;;;11.00;10.10;;;18.90;99.90;;;;;;4918130;29;20181;-63
2021/09/14 06:12:16;;;;;;;10.57;9.57;;;19.00;99.90;;;;;;4918180;29;20619;-63
2021/09/14 06:14:41;;;;;;;10.43;9.40;;;19.10;99.90;;;;;;4917780;29;20189;-63
2021/09/14 06:17:07;;;;;;;9.37;8.67;;;19.30;99.90;;;;;;4917593;29;20181;-63
2021/09/14 06:19:32;;;;;;;11.40;10.40;;;19.50;99.90;;;;;;4917354;29;20186;-63
2021/09/14 06:21:58;;;;;;;10.50;9.70;;;19.60;99.90;;;;;;4917774;29;20190;-63
2021/09/14 06:24:23;;;;;;;10.90;9.80;;;19.80;99.90;;;;;;4917345;29;20185;-63
2021/09/14 06:26:49;;;;;;;10.43;9.43;;;19.90;99.90;;;;;;4917769;29;20182;-63
2021/09/14 06:29:14;;;;;;;11.60;10.53;;;19.90;99.90;;;;;;4916296;29;20249;-63
2021/09/14 06:31:40;;;;;;;13.17;11.93;;;19.90;99.90;;;;;;4917532;29;20206;-63
2021/09/14 06:34:06;;;;;;;10.67;9.60;;;19.80;99.90;;;;;;4917639;29;20218;-63
2021/09/14 06:36:31;;;;;;;11.73;10.40;;;19.80;99.90;;;;;;4915893;29;20548;-63
2021/09/14 06:38:57;;;;;;;9.50;8.70;;;19.90;99.90;;;;;;4915590;29;20202;-64
2021/09/14 06:41:22;;;;;;;10.53;9.67;;;20.20;99.90;;;;;;4917684;29;20577;-63
2021/09/14 06:43:48;;;;;;;9.93;8.93;;;20.40;99.90;;;;;;4917542;29;20178;-63
2021/09/14 06:46:14;;;;;;;10.07;9.27;;;20.70;99.90;;;;;;4915948;29;20182;-63
2021/09/14 06:48:39;;;;;;;9.97;8.97;;;20.60;99.90;;;;;;4910175;29;20467;-63
2021/09/14 06:51:05;;;;;;;9.23;8.50;;;20.80;99.90;;;;;;4898401;29;20245;-61
2021/09/14 06:53:31;;;;;;;10.30;9.60;;;20.90;99.90;;;;;;4898317;29;20207;-63
2021/09/14 06:55:57;;;;;;;10.60;9.70;;;21.40;99.90;;;;;;4898884;29;20250;-63
2021/09/14 06:58:23;;;;;;;10.43;8.87;;;21.80;99.90;;;;;;4898107;29;20439;-63
2021/09/14 07:00:48;;;;;;;10.50;9.60;;;22.10;99.90;;;;;;4898454;29;20504;-63
2021/09/14 07:03:14;;;;;;;9.27;8.43;;;22.20;99.90;;;;;;4898248;29;20230;-64
2021/09/14 07:05:40;;;;;;;9.90;9.10;;;21.90;99.90;;;;;;4898186;29;20688;-64
2021/09/14 07:08:06;;;;;;;15.90;10.47;;;21.90;99.90;;;;;;4897871;29;20194;-63
2021/09/14 07:10:31;;;;;;;13.67;12.37;;;21.80;99.90;;;;;;4906077;29;20644;-64
2021/09/14 07:12:57;;;;;;;12.90;11.60;;;21.90;99.90;;;;;;4900697;29;20215;-64
2021/09/14 07:15:22;;;;;;;10.27;9.33;;;21.80;99.90;;;;;;4897270;29;20302;-64
2021/09/14 07:17:48;;;;;;;9.97;9.00;;;21.80;99.90;;;;;;4897314;29;20703;-65
2021/09/14 07:20:14;;;;;;;10.77;9.93;;;22.10;99.90;;;;;;4909624;29;20186;-64
2021/09/14 07:22:40;;;;;;;10.90;9.80;;;22.60;99.90;;;;;;4916512;29;20233;-65
2021/09/14 07:25:06;;;;;;;9.47;8.67;;;22.90;99.90;;;;;;4916827;29;20210;-65
2021/09/14 07:27:33;;;;;;;8.83;8.10;;;23.20;99.90;;;;;;4914439;29;20270;-65
2021/09/14 07:29:58;;;;;;;8.03;7.43;;;23.30;99.90;;;;;;4914225;29;20521;-65
2021/09/14 07:32:24;;;;;;;8.67;8.00;;;23.20;99.90;;;;;;4916392;29;20553;-65
2021/09/14 07:34:49;;;;;;;9.57;8.73;;;23.20;99.90;;;;;;4916256;29;20193;-65
2021/09/14 07:37:15;;;;;;;7.40;6.70;;;23.30;99.90;;;;;;4916250;29;20202;-65
2021/09/14 07:39:41;;;;;;;7.90;7.30;;;23.40;99.90;;;;;;4900472;29;20289;-65
2021/09/14 07:42:06;;;;;;;8.37;7.67;;;23.60;99.90;;;;;;4897568;29;20226;-65
2021/09/14 07:44:32;;;;;;;7.30;6.70;;;23.70;99.90;;;;;;4897583;29;20500;-65
2021/09/14 07:46:58;;;;;;;8.00;7.40;;;23.80;99.90;;;;;;4897396;29;20266;-65
2021/09/14 07:49:23;;;;;;;7.80;6.53;;;24.00;99.90;;;;;;4897074;29;20198;-65
2021/09/14 07:51:49;;;;;;;7.03;6.53;;;24.20;99.90;;;;;;4897346;29;20673;-65
2021/09/14 07:54:14;;;;;;;7.53;6.83;;;24.50;99.90;;;;;;4897399;29;20179;-65
2021/09/14 07:56:40;;;;;;;8.00;6.73;;;24.80;99.90;;;;;;4897403;29;20190;-65
2021/09/14 07:59:05;;;;;;;7.37;6.67;;;25.30;99.90;;;;;;4895675;29;20194;-65
2021/09/14 08:01:31;;;;;;;8.13;7.30;;;25.70;99.90;;;;;;4909595;29;20182;-65
2021/09/14 08:03:56;;;;;;;7.00;6.40;;;25.80;99.90;;;;;;4916036;29;20194;-65
2021/09/14 08:06:22;;;;;;;7.37;6.53;;;25.70;99.90;;;;;;4915555;29;20185;-65
2021/09/14 08:08:47;;;;;;;6.97;6.33;;;25.70;99.90;;;;;;4915463;29;20210;-65
2021/09/14 08:11:15;;;;;;;7.10;6.50;;;25.70;99.90;;;;;;4912657;29;20662;-64
2021/09/14 08:13:42;;;;;;;8.40;5.40;;;26.10;99.90;;;;;;4898527;29;20190;-65
2021/09/14 08:16:07;;;;;;;9.40;7.87;;;26.70;99.90;;;;;;4896922;29;20507;-65
2021/09/14 08:18:33;;;;;;;14.23;8.03;;;27.10;99.90;;;;;;4896705;29;20546;-65
2021/09/14 08:20:58;;;;;;;11.07;9.70;;;26.80;99.90;;;;;;4896753;29;20565;-65
2021/09/14 08:23:24;;;;;;;8.00;6.47;;;27.20;99.90;;;;;;4902081;29;20711;-65
2021/09/14 08:25:50;;;;;;;6.90;6.13;;;27.10;99.90;;;;;;4915787;29;20253;-63
2021/09/14 08:28:15;;;;;;;6.00;5.60;;;27.30;99.90;;;;;;4915425;29;20206;-63
2021/09/14 08:30:41;;;;;;;8.10;7.30;;;27.50;99.90;;;;;;4915713;29;20178;-65
2021/09/14 08:33:06;;;;;;;7.00;6.40;;;27.20;99.90;;;;;;4916010;29;20202;-65
2021/09/14 08:35:32;;;;;;;7.23;6.10;;;27.40;99.90;;;;;;4914970;29;20182;-65
2021/09/14 08:37:58;;;;;;;7.17;6.57;;;27.70;99.90;;;;;;4914865;29;20202;-63
2021/09/14 08:40:24;;;;;;;6.23;5.83;;;27.70;99.90;;;;;;4915822;29;20220;-65
2021/09/14 08:42:50;;;;;;;6.43;5.90;;;27.90;99.90;;;;;;4915991;29;20450;-63
2021/09/14 08:45:16;;;;;;;6.53;6.03;;;28.90;99.90;;;;;;4915582;29;20433;-63
2021/09/14 08:47:41;;;;;;;7.27;6.70;;;29.30;99.90;;;;;;4914551;29;20513;-63
2021/09/14 08:50:09;;;;;;;8.00;5.67;;;29.50;99.90;;;;;;4914769;29;20182;-63
2021/09/14 08:52:34;;;;;;;6.83;6.40;;;29.20;99.80;;;;;;4915506;29;20222;-63
2021/09/14 08:55:00;;;;;;;6.57;6.00;;;29.70;99.40;;;;;;4915730;29;20920;-63
2021/09/14 08:57:26;;;;;;;7.60;6.27;;;30.50;98.20;;;;;;4915305;29;20189;-63
2021/09/14 08:59:55;;;;;;;6.20;5.70;;;30.50;97.00;;;;;;4914671;29;20178;-63
2021/09/14 09:02:21;;;;;;;6.33;5.83;;;29.90;97.50;;;;;;4908634;29;20175;-64
2021/09/14 09:05:02;;;;;;;6.47;6.07;;;30.10;97.70;;;;;;4896864;29;20795;-64
2021/09/14 09:07:28;;;;;;;6.57;6.07;;;30.50;97.20;;;;;;4896372;29;20427;-64
2021/09/14 09:09:53;;;;;;;7.70;7.00;;;30.80;96.90;;;;;;4926816;29;20490;-63
2021/09/14 09:12:21;;;;;;;7.10;5.90;;;31.50;95.80;;;;;;4896336;29;20455;-63
2021/09/14 09:14:49;;;;;;;6.40;5.90;;;32.10;94.50;;;;;;4911292;29;20185;-64
2021/09/14 09:17:17;;;;;;;8.50;7.70;;;31.30;94.20;;;;;;4915137;29;20960;-64
2021/09/14 09:19:53;;;;;;;6.47;5.97;;;32.00;93.10;;;;;;4915037;29;20530;-64
2021/09/14 09:22:21;;;;;;;6.17;5.57;;;31.60;93.10;;;;;;4915501;29;20422;-64
2021/09/14 09:24:50;;;;;;;5.40;5.00;;;32.30;92.40;;;;;;4915513;29;20437;-64
2021/09/14 09:27:18;;;;;;;6.67;6.03;;;32.80;92.00;;;;;;4909289;29;20441;-65
2021/09/14 09:29:44;;;;;;;7.03;6.53;;;33.40;91.00;;;;;;4911556;29;20862;-65
2021/09/14 09:32:10;;;;;;;6.63;6.07;;;33.30;90.10;;;;;;4914270;29;20540;-64
2021/09/14 09:34:36;;;;;;;6.70;6.10;;;33.40;89.40;;;;;;4914451;29;20611;-64
2021/09/14 09:37:07;;;;;;;6.97;6.00;;;35.00;86.30;;;;;;4915060;29;20190;-64
2021/09/14 09:39:45;;;;;;;7.60;6.90;;;34.60;81.50;;;;;;4918576;29;20466;-64
2021/09/14 09:42:12;;;;;;;7.13;6.63;;;34.60;82.30;;;;;;4918567;29;20421;-65
2021/09/14 09:44:39;;;;;;;6.50;6.10;;;35.40;79.20;;;;;;4918673;29;20466;-63
2021/09/14 09:47:04;;;;;;;5.93;5.47;;;35.70;77.60;;;;;;4918395;29;20500;-64
2021/09/14 09:49:32;;;;;;;6.50;6.00;;;35.50;76.00;;;;;;4918191;29;21019;-62
2021/09/14 09:52:03;;;;;;;5.90;5.50;;;34.60;75.90;;;;;;4918340;29;20494;-62
2021/09/14 09:54:30;;;;;;;6.00;5.60;;;34.00;77.60;;;;;;4918653;29;20425;-63
2021/09/14 09:56:57;;;;;;;6.10;5.70;;;34.50;77.30;;;;;;4909646;29;20494;-63
2021/09/14 09:59:22;;;;;;;7.13;6.40;;;35.30;74.80;;;;;;4898987;29;20791;-63
2021/09/14 10:02:26;;;;;;;6.90;6.40;;;35.80;74.10;;;;;;4899219;29;20426;-62
2021/09/14 10:05:05;;;;;;;7.30;6.80;;;34.20;75.00;;;;;;4893501;29;20661;-63
2021/09/14 10:07:33;;;;;;;5.77;5.37;;;34.40;75.60;;;;;;4899001;29;20427;-63
2021/09/14 10:10:00;;;;;;;6.53;6.03;;;34.70;73.20;;;;;;4899256;29;20446;-62
2021/09/14 10:12:33;;;;;;;7.43;6.73;;;34.60;73.00;;;;;;4909403;29;20458;-61
2021/09/14 10:15:14;;;;;;;7.10;6.40;;;35.30;71.50;;;;;;4917964;29;20826;-62
2021/09/14 10:17:51;;;;;;;7.00;6.40;;;34.90;74.00;;;;;;4912552;29;20465;-61
2021/09/14 10:20:19;;;;;;;6.57;6.17;;;34.80;72.90;;;;;;4913314;29;20445;-62
2021/09/14 10:22:46;;;;;;;7.00;6.40;;;34.90;70.80;;;;;;4906838;29;21004;-62
2021/09/14 10:25:20;;;;;;;7.60;7.00;;;35.30;70.80;;;;;;4916106;29;20477;-63
2021/09/14 10:27:47;;;;;;;5.93;5.53;;;36.60;69.40;;;;;;4908377;29;20446;-63
2021/09/14 10:30:14;;;;;;;6.30;5.87;;;36.40;67.30;;;;;;4917630;29;20434;-63
2021/09/14 10:32:44;;;;;;;10.23;6.10;;;36.30;67.40;;;;;;4918041;29;20880;-63
2021/09/14 10:35:11;;;;;;;6.57;6.17;;;36.40;67.40;;;;;;4917230;29;20433;-63
2021/09/14 10:37:38;;;;;;;6.63;5.53;;;36.90;66.20;;;;;;4917695;29;20418;-64
2021/09/14 10:40:15;;;;;;;5.23;4.93;;;36.50;65.10;;;;;;4917823;29;20426;-63
2021/09/14 10:42:45;;;;;;;6.53;5.80;;;36.70;65.00;;;;;;4917682;29;20433;-63
2021/09/14 10:45:16;;;;;;;6.77;6.07;;;35.70;65.40;;;;;;4914249;29;20422;-62
2021/09/14 10:47:46;;;;;;;6.50;6.10;;;34.00;69.60;;;;;;4917044;29;20920;-63
2021/09/14 10:50:25;;;;;;;6.70;6.20;;;34.00;70.50;;;;;;4916102;29;20525;-63
2021/09/14 10:53:00;;;;;;;6.50;5.90;;;34.90;69.70;;;;;;4917616;29;20833;-63
2021/09/14 10:55:26;;;;;;;6.47;5.80;;;35.90;66.40;;;;;;4917104;29;20434;-64
2021/09/14 10:57:59;;;;;;;6.30;5.80;;;35.90;67.70;;;;;;4911060;29;20465;-64
2021/09/14 11:00:33;;;;;;;6.43;5.80;;;36.90;65.40;;;;;;4913853;29;20434;-63
2021/09/14 11:03:06;;;;;;;6.43;5.93;;;37.00;63.70;;;;;;4913908;29;20441;-63
2021/09/14 11:05:36;;;;;;;6.27;5.77;;;35.20;65.70;;;;;;4913947;29;20928;-63
2021/09/14 11:08:07;;;;;;;6.23;5.80;;;35.00;68.20;;;;;;4913431;29;20474;-64
2021/09/14 11:10:41;;;;;;;6.90;5.47;;;36.00;66.20;;;;;;4914080;29;20940;-63
2021/09/14 11:13:08;;;;;;;6.40;6.00;;;37.30;63.30;;;;;;4913734;29;20462;-63
2021/09/14 11:15:34;;;;;;;8.50;6.10;;;38.20;61.40;;;;;;4913599;29;20437;-63
2021/09/14 11:18:00;;;;;;;5.63;5.23;;;38.00;60.10;;;;;;4913429;29;20453;-62
2021/09/14 11:20:26;;;;;;;5.73;5.23;;;37.70;60.80;;;;;;4913687;29;20441;-63
2021/09/14 11:22:54;;;;;;;5.63;5.23;;;37.80;59.80;;;;;;4913660;29;20843;-63
2021/09/14 11:25:22;;;;;;;6.13;5.70;;;37.80;59.90;;;;;;4913284;29;20446;-63
2021/09/14 11:28:03;;;;;;;6.50;6.10;;;37.60;60.50;;;;;;4915045;29;20466;-63
2021/09/14 11:30:31;;;;;;;6.10;5.60;;;38.70;59.40;;;;;;4916658;29;20441;-65
2021/09/14 11:32:59;;;;;;;6.03;5.63;;;38.40;58.30;;;;;;4916445;29;20473;-63
2021/09/14 11:35:29;;;;;;;6.67;6.10;;;37.10;60.90;;;;;;4914013;29;20461;-63
2021/09/14 11:38:05;;;;;;;6.37;5.77;;;36.80;60.80;;;;;;4910980;29;20549;-63
2021/09/14 11:40:33;;;;;;;6.13;5.73;;;36.70;61.90;;;;;;4916214;29;20453;-62
2021/09/14 11:43:01;;;;;;;6.37;5.90;;;36.20;60.80;;;;;;4916324;29;20963;-63
2021/09/14 11:45:29;;;;;;;6.07;5.57;;;35.70;61.50;;;;;;4915856;29;20458;-62
2021/09/14 11:47:56;;;;;;;6.60;6.10;;;34.70;64.10;;;;;;4914995;29;20454;-62
2021/09/14 11:50:27;;;;;;;6.80;6.40;;;34.50;64.20;;;;;;4916183;29;20429;-63
2021/09/14 11:53:13;;;;;;;6.73;6.13;;;34.10;67.30;;;;;;4916018;29;20462;-62
2021/09/14 11:55:50;;;;;;;7.47;6.87;;;34.80;64.80;;;;;;4916123;29;20454;-63
2021/09/14 11:58:29;;;;;;;7.13;6.60;;;35.70;63.90;;;;;;4915676;29;21206;-62
2021/09/14 12:00:57;;;;;;;7.20;6.60;;;35.80;63.20;;;;;;4916015;29;20430;-62
2021/09/14 12:03:38;;;;;;;6.90;6.30;;;36.20;62.30;;;;;;4916046;29;20441;-62
2021/09/14 12:06:06;;;;;;;7.40;6.27;;;35.30;63.10;;;;;;4914671;29;20441;-62
2021/09/14 12:08:42;;;;;;;9.23;6.97;;;33.40;65.40;;;;;;4915498;29;20470;-62
2021/09/14 12:11:09;;;;;;;8.77;6.97;;;32.40;69.70;;;;;;4915777;29;20470;-62
2021/09/14 12:13:42;;;;;;;7.73;7.03;;;32.30;69.70;;;;;;4915666;29;20436;-62
2021/09/14 12:16:17;;;;;;;7.63;6.93;;;31.50;72.00;;;;;;4915835;29;20430;-62
2021/09/14 12:18:43;;;;;;;7.10;6.50;;;31.70;72.70;;;;;;4915425;29;20445;-62
2021/09/14 12:21:11;;;;;;;8.83;7.30;;;31.60;73.00;;;;;;4915621;29;20449;-62
2021/09/14 12:23:37;;;;;;;7.67;6.40;;;31.20;73.50;;;;;;4915582;29;21000;-62
2021/09/14 12:26:03;;;;;;;7.83;7.23;;;31.30;73.50;;;;;;4915900;29;20422;-62
2021/09/14 12:28:29;;;;;;;8.00;7.30;;;32.20;71.70;;;;;;4915306;29;20506;-62
2021/09/14 12:30:54;;;;;;;7.63;7.13;;;32.80;69.80;;;;;;4903288;29;20191;-62
2021/09/14 12:33:20;;;;;;;9.60;7.10;;;33.40;70.20;;;;;;4897817;29;20395;-62
2021/09/14 12:35:46;;;;;;;9.73;7.90;;;33.70;69.60;;;;;;4896443;29;20288;-62
2021/09/14 12:38:11;;;;;;;7.60;7.00;;;33.60;69.80;;;;;;4903458;29;20253;-62
2021/09/14 12:40:38;;;;;;;7.10;6.50;;;33.00;70.90;;;;;;4945912;29;20675;-62
2021/09/14 12:43:04;;;;;;;6.60;6.20;;;33.10;71.80;;;;;;4914839;29;20229;-62
2021/09/14 12:45:29;;;;;;;7.10;6.60;;;32.80;72.30;;;;;;4915343;29;20469;-62
2021/09/14 12:47:55;;;;;;;7.33;6.27;;;32.40;72.50;;;;;;4915064;29;20454;-62
2021/09/14 12:50:21;;;;;;;7.83;6.83;;;32.60;72.90;;;;;;4915455;29;20178;-62
2021/09/14 12:52:46;;;;;;;8.63;6.80;;;32.70;72.20;;;;;;4915254;29;20206;-62
2021/09/14 12:55:12;;;;;;;6.80;6.20;;;33.00;71.40;;;;;;4915380;29;20181;-62
2021/09/14 12:57:38;;;;;;;7.00;6.40;;;33.90;70.70;;;;;;4915040;29;20562;-62
2021/09/14 13:00:04;;;;;;;6.67;6.20;;;35.20;68.80;;;;;;4915781;29;20249;-63
2021/09/14 13:02:30;;;;;;;7.00;6.37;;;37.00;64.80;;;;;;4915152;29;20178;-63
2021/09/14 13:04:56;;;;;;;7.33;6.83;;;38.50;61.90;;;;;;4913573;29;20807;-63
2021/09/14 13:07:21;;;;;;;6.93;6.40;;;40.50;59.40;;;;;;4914868;29;20661;-63
2021/09/14 13:09:47;;;;;;;7.10;6.60;;;42.30;55.70;;;;;;4915044;29;20205;-63
2021/09/14 13:12:19;;;;;;;6.50;6.00;;;43.30;54.20;;;;;;4915234;29;20232;-63
2021/09/14 13:17:30;;;;;;;8.00;5.73;;;45.00;49.00;;;;;;4916735;29;20471;-62
2021/09/14 13:19:55;;;;;;;7.40;6.70;;;42.90;50.10;;;;;;4918506;29;20438;-63
2021/09/14 13:22:21;;;;;;;6.93;6.43;;;41.90;50.10;;;;;;4918834;29;20481;-62
2021/09/14 13:24:46;;;;;;;6.57;5.97;;;40.30;51.50;;;;;;4918796;29;20174;-62
2021/09/14 13:27:12;;;;;;;8.30;7.60;;;39.40;52.70;;;;;;4918504;29;20174;-63
2021/09/14 13:29:37;;;;;;;6.93;6.40;;;38.10;53.60;;;;;;4918021;29;20209;-63
2021/09/14 13:32:03;;;;;;;6.47;5.80;;;38.50;54.40;;;;;;4918575;29;20201;-63
2021/09/14 13:34:28;;;;;;;6.50;6.10;;;38.70;54.30;;;;;;4917305;29;20229;-63
2021/09/14 13:36:54;;;;;;;6.60;6.20;;;38.90;54.00;;;;;;4918822;29;20226;-62
2021/09/14 13:39:20;;;;;;;6.60;6.20;;;40.10;53.10;;;;;;4912583;29;20655;-63
2021/09/14 13:41:51;;;;;;;7.83;6.60;;;38.50;53.00;;;;;;4899588;29;20230;-62